sensor_id;sensor_type;location;lat;lon;timestamp;P1;durP1;ratioP1;P2;durP2;ratioP2
38611;SDS011;24368;52.156;20.788;2024-01-06T00:03:18;13.80;;;10.10;;
38611;SDS011;24368;52.156;20.788;2024-01-06T00:08:20;13.70;;;10.30;;
38611;SDS011;24368;52.156;20.788;2024-01-06T00:13:22;13.20;;;10.40;;
38611;SDS011;24368;52.156;20.788;2024-01-06T00:18:24;14.00;;;10.90;;
38611;SDS011;24368;52.156;20.788;2024-01-06T00:23:25;13.30;;;10.20;;
38611;SDS011;24368;52.156;20.788;2024-01-06T00:28:27;12.70;;;10.30;;
38611;SDS011;24368;52.156;20.788;2024-01-06T00:33:29;13.00;;;10.60;;
38611;SDS011;24368;52.156;20.788;2024-01-06T00:38:31;13.70;;;10.70;;
38611;SDS011;24368;52.156;20.788;2024-01-06T00:43:32;14.00;;;10.60;;
38611;SDS011;24368;52.156;20.788;2024-01-06T00:48:34;13.80;;;10.50;;
38611;SDS011;24368;52.156;20.788;2024-01-06T00:53:36;14.80;;;11.00;;
38611;SDS011;24368;52.156;20.788;2024-01-06T00:58:38;16.00;;;11.70;;
38611;SDS011;24368;52.156;20.788;2024-01-06T01:03:39;15.20;;;10.90;;
38611;SDS011;24368;52.156;20.788;2024-01-06T01:08:41;17.90;;;13.10;;
38611;SDS011;24368;52.156;20.788;2024-01-06T01:13:43;16.40;;;12.30;;
38611;SDS011;24368;52.156;20.788;2024-01-06T01:18:44;16.60;;;12.90;;
38611;SDS011;24368;52.156;20.788;2024-01-06T01:23:46;18.10;;;13.00;;
38611;SDS011;24368;52.156;20.788;2024-01-06T01:28:48;17.40;;;14.20;;
38611;SDS011;24368;52.156;20.788;2024-01-06T01:33:50;20.10;;;14.00;;
38611;SDS011;24368;52.156;20.788;2024-01-06T01:38:52;19.00;;;14.00;;
38611;SDS011;24368;52.156;20.788;2024-01-06T01:43:53;18.90;;;14.90;;
38611;SDS011;24368;52.156;20.788;2024-01-06T01:49:00;17.30;;;13.10;;
38611;SDS011;24368;52.156;20.788;2024-01-06T01:54:03;17.00;;;13.00;;
38611;SDS011;24368;52.156;20.788;2024-01-06T01:59:10;15.20;;;12.30;;
38611;SDS011;24368;52.156;20.788;2024-01-06T02:04:13;15.50;;;11.80;;
38611;SDS011;24368;52.156;20.788;2024-01-06T02:09:15;33.70;;;21.40;;
38611;SDS011;24368;52.156;20.788;2024-01-06T02:14:17;15.30;;;11.50;;
38611;SDS011;24368;52.156;20.788;2024-01-06T02:19:18;14.50;;;11.40;;
38611;SDS011;24368;52.156;20.788;2024-01-06T02:24:21;14.10;;;10.70;;
38611;SDS011;24368;52.156;20.788;2024-01-06T02:29:22;15.40;;;10.70;;
38611;SDS011;24368;52.156;20.788;2024-01-06T02:34:24;13.40;;;10.40;;
38611;SDS011;24368;52.156;20.788;2024-01-06T02:39:26;13.50;;;10.60;;
38611;SDS011;24368;52.156;20.788;2024-01-06T02:44:28;11.10;;;9.80;;
38611;SDS011;24368;52.156;20.788;2024-01-06T02:49:29;12.70;;;10.50;;
38611;SDS011;24368;52.156;20.788;2024-01-06T02:54:31;13.60;;;10.50;;
38611;SDS011;24368;52.156;20.788;2024-01-06T02:59:33;15.60;;;10.80;;
38611;SDS011;24368;52.156;20.788;2024-01-06T03:04:36;13.80;;;10.40;;
38611;SDS011;24368;52.156;20.788;2024-01-06T03:09:37;13.40;;;10.10;;
38611;SDS011;24368;52.156;20.788;2024-01-06T03:14:42;11.60;;;9.80;;
38611;SDS011;24368;52.156;20.788;2024-01-06T03:19:44;12.10;;;9.50;;
38611;SDS011;24368;52.156;20.788;2024-01-06T03:24:46;11.80;;;9.50;;
38611;SDS011;24368;52.156;20.788;2024-01-06T03:29:47;11.50;;;9.20;;
38611;SDS011;24368;52.156;20.788;2024-01-06T03:34:49;10.40;;;8.90;;
38611;SDS011;24368;52.156;20.788;2024-01-06T03:39:51;11.70;;;9.20;;
38611;SDS011;24368;52.156;20.788;2024-01-06T03:44:53;12.40;;;10.00;;
38611;SDS011;24368;52.156;20.788;2024-01-06T03:49:55;11.60;;;9.30;;
38611;SDS011;24368;52.156;20.788;2024-01-06T03:54:56;11.80;;;9.40;;
38611;SDS011;24368;52.156;20.788;2024-01-06T03:59:58;11.00;;;9.00;;
38611;SDS011;24368;52.156;20.788;2024-01-06T04:05:00;11.80;;;8.90;;
38611;SDS011;24368;52.156;20.788;2024-01-06T04:10:02;10.70;;;9.00;;
38611;SDS011;24368;52.156;20.788;2024-01-06T04:15:04;12.70;;;9.30;;
38611;SDS011;24368;52.156;20.788;2024-01-06T04:20:06;12.10;;;9.20;;
38611;SDS011;24368;52.156;20.788;2024-01-06T04:25:08;11.70;;;9.90;;
38611;SDS011;24368;52.156;20.788;2024-01-06T04:30:10;10.50;;;9.40;;
38611;SDS011;24368;52.156;20.788;2024-01-06T04:35:12;11.80;;;10.00;;
38611;SDS011;24368;52.156;20.788;2024-01-06T04:40:14;12.70;;;10.30;;
38611;SDS011;24368;52.156;20.788;2024-01-06T04:45:16;10.10;;;9.00;;
38611;SDS011;24368;52.156;20.788;2024-01-06T04:50:20;13.10;;;10.00;;
38611;SDS011;24368;52.156;20.788;2024-01-06T04:55:22;13.50;;;10.70;;
38611;SDS011;24368;52.156;20.788;2024-01-06T05:00:24;12.70;;;11.10;;
38611;SDS011;24368;52.156;20.788;2024-01-06T05:05:26;13.10;;;10.10;;
38611;SDS011;24368;52.156;20.788;2024-01-06T05:10:28;14.50;;;10.60;;
38611;SDS011;24368;52.156;20.788;2024-01-06T05:15:30;14.00;;;11.10;;
38611;SDS011;24368;52.156;20.788;2024-01-06T05:20:32;12.50;;;10.30;;
38611;SDS011;24368;52.156;20.788;2024-01-06T05:25:33;13.30;;;10.80;;
38611;SDS011;24368;52.156;20.788;2024-01-06T05:30:35;15.70;;;10.70;;
38611;SDS011;24368;52.156;20.788;2024-01-06T05:35:37;14.20;;;11.60;;
38611;SDS011;24368;52.156;20.788;2024-01-06T05:40:39;14.40;;;11.00;;
38611;SDS011;24368;52.156;20.788;2024-01-06T05:45:40;14.50;;;11.60;;
38611;SDS011;24368;52.156;20.788;2024-01-06T05:50:46;13.30;;;11.10;;
38611;SDS011;24368;52.156;20.788;2024-01-06T05:55:47;16.40;;;11.40;;
38611;SDS011;24368;52.156;20.788;2024-01-06T06:00:49;14.50;;;11.10;;
38611;SDS011;24368;52.156;20.788;2024-01-06T06:05:52;14.90;;;11.30;;
38611;SDS011;24368;52.156;20.788;2024-01-06T06:10:55;13.70;;;11.00;;
38611;SDS011;24368;52.156;20.788;2024-01-06T06:16:03;14.00;;;10.70;;
38611;SDS011;24368;52.156;20.788;2024-01-06T06:21:06;14.10;;;11.20;;
38611;SDS011;24368;52.156;20.788;2024-01-06T06:26:11;11.70;;;9.50;;
38611;SDS011;24368;52.156;20.788;2024-01-06T06:31:14;12.10;;;9.30;;
38611;SDS011;24368;52.156;20.788;2024-01-06T06:36:15;12.90;;;10.00;;
38611;SDS011;24368;52.156;20.788;2024-01-06T06:41:17;11.80;;;9.70;;
38611;SDS011;24368;52.156;20.788;2024-01-06T06:46:21;11.40;;;9.70;;
38611;SDS011;24368;52.156;20.788;2024-01-06T06:51:22;13.50;;;10.00;;
38611;SDS011;24368;52.156;20.788;2024-01-06T06:56:28;12.30;;;9.80;;
38611;SDS011;24368;52.156;20.788;2024-01-06T07:01:29;11.20;;;9.30;;
38611;SDS011;24368;52.156;20.788;2024-01-06T07:06:32;11.40;;;9.70;;
38611;SDS011;24368;52.156;20.788;2024-01-06T07:11:34;11.20;;;9.60;;
38611;SDS011;24368;52.156;20.788;2024-01-06T07:16:35;12.00;;;9.40;;
38611;SDS011;24368;52.156;20.788;2024-01-06T07:21:37;11.10;;;9.20;;
38611;SDS011;24368;52.156;20.788;2024-01-06T07:26:42;13.30;;;10.60;;
38611;SDS011;24368;52.156;20.788;2024-01-06T07:31:44;13.80;;;9.70;;
38611;SDS011;24368;52.156;20.788;2024-01-06T07:36:46;13.70;;;10.30;;
38611;SDS011;24368;52.156;20.788;2024-01-06T07:41:47;14.60;;;11.00;;
38611;SDS011;24368;52.156;20.788;2024-01-06T07:46:50;12.10;;;10.30;;
38611;SDS011;24368;52.156;20.788;2024-01-06T07:51:52;13.90;;;10.10;;
38611;SDS011;24368;52.156;20.788;2024-01-06T08:01:30;13.90;;;10.40;;
38611;SDS011;24368;52.156;20.788;2024-01-06T08:06:33;11.40;;;9.90;;
38611;SDS011;24368;52.156;20.788;2024-01-06T08:11:34;14.90;;;12.50;;
38611;SDS011;24368;52.156;20.788;2024-01-06T08:16:36;14.10;;;11.00;;
38611;SDS011;24368;52.156;20.788;2024-01-06T08:21:38;13.90;;;11.40;;
38611;SDS011;24368;52.156;20.788;2024-01-06T08:26:40;14.60;;;11.40;;
38611;SDS011;24368;52.156;20.788;2024-01-06T08:31:41;14.80;;;11.90;;
38611;SDS011;24368;52.156;20.788;2024-01-06T08:36:43;17.10;;;12.40;;
38611;SDS011;24368;52.156;20.788;2024-01-06T08:41:46;15.70;;;12.30;;
38611;SDS011;24368;52.156;20.788;2024-01-06T08:46:47;14.20;;;11.10;;
38611;SDS011;24368;52.156;20.788;2024-01-06T08:51:49;16.30;;;12.60;;
38611;SDS011;24368;52.156;20.788;2024-01-06T08:56:51;15.80;;;11.70;;
38611;SDS011;24368;52.156;20.788;2024-01-06T09:01:53;15.40;;;11.90;;
38611;SDS011;24368;52.156;20.788;2024-01-06T09:06:55;16.90;;;13.00;;
38611;SDS011;24368;52.156;20.788;2024-01-06T09:11:57;14.80;;;12.10;;
38611;SDS011;24368;52.156;20.788;2024-01-06T09:16:59;17.70;;;12.10;;
38611;SDS011;24368;52.156;20.788;2024-01-06T09:22:01;15.40;;;11.70;;
38611;SDS011;24368;52.156;20.788;2024-01-06T09:27:02;13.40;;;10.90;;
38611;SDS011;24368;52.156;20.788;2024-01-06T09:32:05;14.20;;;11.60;;
38611;SDS011;24368;52.156;20.788;2024-01-06T09:37:07;13.50;;;10.80;;
38611;SDS011;24368;52.156;20.788;2024-01-06T09:42:09;12.30;;;10.80;;
38611;SDS011;24368;52.156;20.788;2024-01-06T09:47:12;14.00;;;10.90;;
38611;SDS011;24368;52.156;20.788;2024-01-06T09:52:14;13.30;;;11.30;;
38611;SDS011;24368;52.156;20.788;2024-01-06T09:57:22;13.30;;;10.20;;
38611;SDS011;24368;52.156;20.788;2024-01-06T10:07:27;13.70;;;10.30;;
38611;SDS011;24368;52.156;20.788;2024-01-06T10:12:30;13.20;;;10.00;;
38611;SDS011;24368;52.156;20.788;2024-01-06T10:17:32;11.90;;;10.70;;
38611;SDS011;24368;52.156;20.788;2024-01-06T10:22:35;12.80;;;10.30;;
38611;SDS011;24368;52.156;20.788;2024-01-06T10:27:38;11.60;;;10.40;;
38611;SDS011;24368;52.156;20.788;2024-01-06T10:32:41;13.40;;;11.00;;
38611;SDS011;24368;52.156;20.788;2024-01-06T10:37:43;12.30;;;10.50;;
38611;SDS011;24368;52.156;20.788;2024-01-06T10:42:46;12.50;;;10.10;;
38611;SDS011;24368;52.156;20.788;2024-01-06T10:47:48;12.30;;;10.60;;
38611;SDS011;24368;52.156;20.788;2024-01-06T10:52:50;12.80;;;10.80;;
38611;SDS011;24368;52.156;20.788;2024-01-06T10:57:54;14.50;;;11.40;;
38611;SDS011;24368;52.156;20.788;2024-01-06T11:02:57;11.50;;;10.30;;
38611;SDS011;24368;52.156;20.788;2024-01-06T11:08:00;12.80;;;11.40;;
38611;SDS011;24368;52.156;20.788;2024-01-06T11:13:09;14.70;;;12.40;;
38611;SDS011;24368;52.156;20.788;2024-01-06T11:18:30;10.70;;;9.60;;
38611;SDS011;24368;52.156;20.788;2024-01-06T11:23:36;10.50;;;8.70;;
38611;SDS011;24368;52.156;20.788;2024-01-06T11:28:45;9.40;;;8.40;;
38611;SDS011;24368;52.156;20.788;2024-01-06T11:33:47;8.30;;;7.30;;
38611;SDS011;24368;52.156;20.788;2024-01-06T11:38:52;8.70;;;6.80;;
38611;SDS011;24368;52.156;20.788;2024-01-06T11:43:54;9.40;;;8.20;;
38611;SDS011;24368;52.156;20.788;2024-01-06T11:48:56;7.60;;;6.80;;
38611;SDS011;24368;52.156;20.788;2024-01-06T11:53:58;9.20;;;8.00;;
38611;SDS011;24368;52.156;20.788;2024-01-06T11:59:00;9.20;;;7.50;;
38611;SDS011;24368;52.156;20.788;2024-01-06T12:04:02;10.90;;;9.70;;
38611;SDS011;24368;52.156;20.788;2024-01-06T12:09:07;10.20;;;8.50;;
38611;SDS011;24368;52.156;20.788;2024-01-06T12:14:09;10.70;;;9.10;;
38611;SDS011;24368;52.156;20.788;2024-01-06T12:19:11;14.00;;;9.80;;
38611;SDS011;24368;52.156;20.788;2024-01-06T12:24:17;12.90;;;11.10;;
38611;SDS011;24368;52.156;20.788;2024-01-06T12:29:21;14.60;;;10.70;;
38611;SDS011;24368;52.156;20.788;2024-01-06T12:34:23;12.80;;;10.10;;
38611;SDS011;24368;52.156;20.788;2024-01-06T12:39:31;11.50;;;9.10;;
38611;SDS011;24368;52.156;20.788;2024-01-06T12:44:56;11.60;;;9.00;;
38611;SDS011;24368;52.156;20.788;2024-01-06T12:49:58;11.00;;;9.20;;
38611;SDS011;24368;52.156;20.788;2024-01-06T12:55:00;12.00;;;9.60;;
38611;SDS011;24368;52.156;20.788;2024-01-06T13:00:03;8.70;;;7.80;;
38611;SDS011;24368;52.156;20.788;2024-01-06T13:05:07;7.40;;;6.70;;
38611;SDS011;24368;52.156;20.788;2024-01-06T13:10:10;8.00;;;7.00;;
38611;SDS011;24368;52.156;20.788;2024-01-06T13:15:12;8.20;;;6.70;;
38611;SDS011;24368;52.156;20.788;2024-01-06T13:20:15;7.50;;;5.90;;
38611;SDS011;24368;52.156;20.788;2024-01-06T13:25:17;6.80;;;6.10;;
38611;SDS011;24368;52.156;20.788;2024-01-06T13:30:21;8.00;;;5.70;;
38611;SDS011;24368;52.156;20.788;2024-01-06T13:35:23;6.30;;;5.10;;
38611;SDS011;24368;52.156;20.788;2024-01-06T13:40:26;9.20;;;5.20;;
38611;SDS011;24368;52.156;20.788;2024-01-06T13:45:28;6.70;;;5.30;;
38611;SDS011;24368;52.156;20.788;2024-01-06T13:50:31;7.20;;;5.80;;
38611;SDS011;24368;52.156;20.788;2024-01-06T13:55:34;6.20;;;5.50;;
38611;SDS011;24368;52.156;20.788;2024-01-06T14:00:36;6.10;;;5.20;;
38611;SDS011;24368;52.156;20.788;2024-01-06T14:05:37;8.40;;;6.10;;
38611;SDS011;24368;52.156;20.788;2024-01-06T14:10:41;8.30;;;5.90;;
38611;SDS011;24368;52.156;20.788;2024-01-06T14:15:43;7.10;;;5.90;;
38611;SDS011;24368;52.156;20.788;2024-01-06T14:20:45;10.20;;;7.20;;
38611;SDS011;24368;52.156;20.788;2024-01-06T14:25:47;8.50;;;6.70;;
38611;SDS011;24368;52.156;20.788;2024-01-06T14:30:49;9.20;;;5.90;;
38611;SDS011;24368;52.156;20.788;2024-01-06T14:35:51;8.30;;;6.30;;
38611;SDS011;24368;52.156;20.788;2024-01-06T14:40:54;6.20;;;5.10;;
38611;SDS011;24368;52.156;20.788;2024-01-06T14:45:56;6.00;;;4.90;;
38611;SDS011;24368;52.156;20.788;2024-01-06T14:50:57;6.90;;;4.40;;
38611;SDS011;24368;52.156;20.788;2024-01-06T14:56:00;4.80;;;4.00;;
38611;SDS011;24368;52.156;20.788;2024-01-06T15:01:02;5.80;;;4.30;;
38611;SDS011;24368;52.156;20.788;2024-01-06T15:06:07;6.00;;;4.50;;
38611;SDS011;24368;52.156;20.788;2024-01-06T15:11:09;6.80;;;4.20;;
38611;SDS011;24368;52.156;20.788;2024-01-06T15:16:11;5.70;;;4.40;;
38611;SDS011;24368;52.156;20.788;2024-01-06T15:21:13;5.80;;;4.50;;
38611;SDS011;24368;52.156;20.788;2024-01-06T15:26:24;5.30;;;4.00;;
38611;SDS011;24368;52.156;20.788;2024-01-06T15:31:26;5.90;;;4.70;;
38611;SDS011;24368;52.156;20.788;2024-01-06T15:36:29;5.10;;;4.00;;
38611;SDS011;24368;52.156;20.788;2024-01-06T15:41:31;6.30;;;4.80;;
38611;SDS011;24368;52.156;20.788;2024-01-06T15:46:33;5.80;;;5.00;;
38611;SDS011;24368;52.156;20.788;2024-01-06T15:51:35;6.70;;;5.50;;
38611;SDS011;24368;52.156;20.788;2024-01-06T15:56:37;7.10;;;5.30;;
38611;SDS011;24368;52.156;20.788;2024-01-06T16:01:39;11.40;;;7.90;;
38611;SDS011;24368;52.156;20.788;2024-01-06T16:06:40;5.60;;;4.70;;
38611;SDS011;24368;52.156;20.788;2024-01-06T16:11:42;5.80;;;4.80;;
38611;SDS011;24368;52.156;20.788;2024-01-06T16:16:44;4.60;;;3.50;;
38611;SDS011;24368;52.156;20.788;2024-01-06T16:21:46;4.00;;;2.90;;
38611;SDS011;24368;52.156;20.788;2024-01-06T16:26:49;4.40;;;3.40;;
38611;SDS011;24368;52.156;20.788;2024-01-06T16:31:51;4.60;;;2.90;;
38611;SDS011;24368;52.156;20.788;2024-01-06T16:36:52;4.90;;;3.40;;
38611;SDS011;24368;52.156;20.788;2024-01-06T16:41:54;3.80;;;2.90;;
38611;SDS011;24368;52.156;20.788;2024-01-06T16:46:58;4.60;;;3.50;;
38611;SDS011;24368;52.156;20.788;2024-01-06T16:52:00;3.90;;;3.50;;
38611;SDS011;24368;52.156;20.788;2024-01-06T16:57:02;4.50;;;4.00;;
38611;SDS011;24368;52.156;20.788;2024-01-06T17:02:04;5.60;;;3.30;;
38611;SDS011;24368;52.156;20.788;2024-01-06T17:07:07;3.80;;;2.70;;
38611;SDS011;24368;52.156;20.788;2024-01-06T17:12:08;4.10;;;3.30;;
38611;SDS011;24368;52.156;20.788;2024-01-06T17:17:11;5.00;;;3.80;;
38611;SDS011;24368;52.156;20.788;2024-01-06T17:22:12;10.30;;;7.30;;
38611;SDS011;24368;52.156;20.788;2024-01-06T17:27:14;9.90;;;6.40;;
38611;SDS011;24368;52.156;20.788;2024-01-06T17:32:17;4.00;;;3.60;;
38611;SDS011;24368;52.156;20.788;2024-01-06T17:37:19;4.20;;;3.80;;
38611;SDS011;24368;52.156;20.788;2024-01-06T17:42:22;4.40;;;4.00;;
38611;SDS011;24368;52.156;20.788;2024-01-06T17:47:26;5.90;;;3.70;;
38611;SDS011;24368;52.156;20.788;2024-01-06T17:52:28;4.80;;;4.00;;
38611;SDS011;24368;52.156;20.788;2024-01-06T17:57:30;11.60;;;8.40;;
38611;SDS011;24368;52.156;20.788;2024-01-06T18:07:37;6.20;;;4.40;;
38611;SDS011;24368;52.156;20.788;2024-01-06T18:12:39;5.60;;;3.80;;
38611;SDS011;24368;52.156;20.788;2024-01-06T18:17:42;5.30;;;4.10;;
38611;SDS011;24368;52.156;20.788;2024-01-06T18:22:44;6.70;;;3.60;;
38611;SDS011;24368;52.156;20.788;2024-01-06T18:27:46;4.60;;;4.00;;
38611;SDS011;24368;52.156;20.788;2024-01-06T18:32:47;5.50;;;3.70;;
38611;SDS011;24368;52.156;20.788;2024-01-06T18:37:49;4.00;;;3.60;;
38611;SDS011;24368;52.156;20.788;2024-01-06T18:42:51;5.50;;;4.10;;
38611;SDS011;24368;52.156;20.788;2024-01-06T18:47:53;3.40;;;3.10;;
38611;SDS011;24368;52.156;20.788;2024-01-06T18:52:55;5.40;;;3.50;;
38611;SDS011;24368;52.156;20.788;2024-01-06T18:57:56;4.50;;;4.00;;
38611;SDS011;24368;52.156;20.788;2024-01-06T19:02:58;5.10;;;3.60;;
38611;SDS011;24368;52.156;20.788;2024-01-06T19:08:02;8.10;;;3.60;;
38611;SDS011;24368;52.156;20.788;2024-01-06T19:13:04;7.60;;;5.10;;
38611;SDS011;24368;52.156;20.788;2024-01-06T19:18:10;5.50;;;3.70;;
38611;SDS011;24368;52.156;20.788;2024-01-06T19:23:12;6.40;;;4.00;;
38611;SDS011;24368;52.156;20.788;2024-01-06T19:28:14;4.90;;;3.40;;
38611;SDS011;24368;52.156;20.788;2024-01-06T19:33:16;4.10;;;3.40;;
38611;SDS011;24368;52.156;20.788;2024-01-06T19:38:18;6.90;;;3.50;;
38611;SDS011;24368;52.156;20.788;2024-01-06T19:43:20;4.20;;;3.60;;
38611;SDS011;24368;52.156;20.788;2024-01-06T19:48:22;5.30;;;3.90;;
38611;SDS011;24368;52.156;20.788;2024-01-06T19:53:23;4.90;;;4.00;;
38611;SDS011;24368;52.156;20.788;2024-01-06T19:58:25;5.40;;;4.40;;
38611;SDS011;24368;52.156;20.788;2024-01-06T20:03:27;5.80;;;4.70;;
38611;SDS011;24368;52.156;20.788;2024-01-06T20:08:29;6.20;;;4.20;;
38611;SDS011;24368;52.156;20.788;2024-01-06T20:13:31;10.20;;;6.20;;
38611;SDS011;24368;52.156;20.788;2024-01-06T20:18:33;11.60;;;7.10;;
38611;SDS011;24368;52.156;20.788;2024-01-06T20:23:34;13.70;;;8.60;;
38611;SDS011;24368;52.156;20.788;2024-01-06T20:28:36;14.00;;;9.50;;
38611;SDS011;24368;52.156;20.788;2024-01-06T20:33:38;12.40;;;9.10;;
38611;SDS011;24368;52.156;20.788;2024-01-06T20:38:40;16.20;;;10.60;;
38611;SDS011;24368;52.156;20.788;2024-01-06T20:43:43;12.70;;;9.40;;
38611;SDS011;24368;52.156;20.788;2024-01-06T20:48:45;14.20;;;10.50;;
38611;SDS011;24368;52.156;20.788;2024-01-06T20:53:47;13.70;;;9.00;;
38611;SDS011;24368;52.156;20.788;2024-01-06T20:58:50;13.60;;;9.10;;
38611;SDS011;24368;52.156;20.788;2024-01-06T21:03:52;14.30;;;10.60;;
38611;SDS011;24368;52.156;20.788;2024-01-06T21:08:55;13.20;;;10.10;;
38611;SDS011;24368;52.156;20.788;2024-01-06T21:13:57;11.80;;;9.20;;
38611;SDS011;24368;52.156;20.788;2024-01-06T21:18:59;15.40;;;8.90;;
38611;SDS011;24368;52.156;20.788;2024-01-06T21:24:01;13.10;;;9.70;;
38611;SDS011;24368;52.156;20.788;2024-01-06T21:29:02;11.10;;;8.30;;
38611;SDS011;24368;52.156;20.788;2024-01-06T21:34:06;10.40;;;8.40;;
38611;SDS011;24368;52.156;20.788;2024-01-06T21:39:08;9.70;;;7.60;;
38611;SDS011;24368;52.156;20.788;2024-01-06T21:44:10;9.00;;;7.80;;
38611;SDS011;24368;52.156;20.788;2024-01-06T21:49:12;10.20;;;7.70;;
38611;SDS011;24368;52.156;20.788;2024-01-06T21:54:13;12.40;;;7.50;;
38611;SDS011;24368;52.156;20.788;2024-01-06T21:59:15;11.20;;;8.40;;
38611;SDS011;24368;52.156;20.788;2024-01-06T22:04:17;11.50;;;8.10;;
38611;SDS011;24368;52.156;20.788;2024-01-06T22:09:19;8.20;;;7.10;;
38611;SDS011;24368;52.156;20.788;2024-01-06T22:14:21;11.10;;;7.90;;
38611;SDS011;24368;52.156;20.788;2024-01-06T22:19:25;11.50;;;8.40;;
38611;SDS011;24368;52.156;20.788;2024-01-06T22:24:26;11.20;;;8.50;;
38611;SDS011;24368;52.156;20.788;2024-01-06T22:29:29;12.40;;;9.20;;
38611;SDS011;24368;52.156;20.788;2024-01-06T22:34:30;13.30;;;9.50;;
38611;SDS011;24368;52.156;20.788;2024-01-06T22:39:32;12.70;;;10.00;;
38611;SDS011;24368;52.156;20.788;2024-01-06T22:44:34;13.10;;;9.80;;
38611;SDS011;24368;52.156;20.788;2024-01-06T22:49:36;12.30;;;9.20;;
38611;SDS011;24368;52.156;20.788;2024-01-06T22:54:38;15.10;;;10.50;;
38611;SDS011;24368;52.156;20.788;2024-01-06T22:59:40;13.00;;;9.80;;
38611;SDS011;24368;52.156;20.788;2024-01-06T23:04:42;15.00;;;10.00;;
38611;SDS011;24368;52.156;20.788;2024-01-06T23:09:43;13.80;;;9.80;;
38611;SDS011;24368;52.156;20.788;2024-01-06T23:14:45;12.80;;;10.20;;
38611;SDS011;24368;52.156;20.788;2024-01-06T23:19:47;17.30;;;11.10;;
38611;SDS011;24368;52.156;20.788;2024-01-06T23:24:49;15.40;;;11.60;;
38611;SDS011;24368;52.156;20.788;2024-01-06T23:29:50;12.90;;;10.30;;
38611;SDS011;24368;52.156;20.788;2024-01-06T23:34:52;14.60;;;10.70;;
38611;SDS011;24368;52.156;20.788;2024-01-06T23:39:54;16.40;;;10.70;;
38611;SDS011;24368;52.156;20.788;2024-01-06T23:44:56;14.20;;;10.40;;
38611;SDS011;24368;52.156;20.788;2024-01-06T23:49:58;16.30;;;11.10;;
38611;SDS011;24368;52.156;20.788;2024-01-06T23:54:59;17.80;;;12.20;;
